createdAt,value
2022-08-19T00:00:29.469Z,79.67
2022-08-19T00:01:30.600Z,79.77
2022-08-19T00:02:29.593Z,79.87
2022-08-19T00:03:29.683Z,79.77
2022-08-19T00:04:29.812Z,79.87
2022-08-19T00:05:29.845Z,79.87
2022-08-19T00:06:29.949Z,79.87
2022-08-19T00:07:30.018Z,79.87
2022-08-19T00:08:30.121Z,79.87
2022-08-19T00:09:30.208Z,79.87
2022-08-19T00:10:30.287Z,79.87
2022-08-19T00:11:30.390Z,79.97
2022-08-19T00:12:30.427Z,79.97
2022-08-19T00:13:30.513Z,79.97
2022-08-19T00:14:30.601Z,79.97
2022-08-19T00:15:30.664Z,79.97
2022-08-19T00:16:30.773Z,79.97
2022-08-19T00:17:30.813Z,79.87
2022-08-19T00:18:30.889Z,79.97
2022-08-19T00:19:30.978Z,79.87
2022-08-19T00:20:31.083Z,79.87
2022-08-19T00:21:31.141Z,79.77
2022-08-19T00:22:31.210Z,79.77
2022-08-19T00:23:31.304Z,79.77
2022-08-19T00:24:31.381Z,79.77
2022-08-19T00:25:31.413Z,79.77
2022-08-19T00:26:31.526Z,79.67
2022-08-19T00:27:31.572Z,79.67
2022-08-19T00:28:31.652Z,79.67
2022-08-19T00:29:31.720Z,79.67
2022-08-19T00:30:31.821Z,79.77
2022-08-19T00:31:31.911Z,79.77
2022-08-19T00:32:31.981Z,79.77
2022-08-19T00:33:32.094Z,79.87
2022-08-19T00:34:32.192Z,79.87
2022-08-19T00:35:32.271Z,79.87
2022-08-19T00:36:32.330Z,79.87
2022-08-19T00:37:32.405Z,79.87
2022-08-19T00:38:37.410Z,79.87
2022-08-19T00:39:32.601Z,79.87
2022-08-19T00:40:32.715Z,79.77
2022-08-19T00:41:32.772Z,79.67
2022-08-19T00:42:32.792Z,79.57
2022-08-19T00:43:32.901Z,79.47
2022-08-19T00:44:32.932Z,79.47
2022-08-19T00:45:33.009Z,79.47
2022-08-19T00:46:33.117Z,79.47
2022-08-19T00:47:33.183Z,79.47
2022-08-19T00:48:33.346Z,79.47
2022-08-19T00:49:33.348Z,79.47
2022-08-19T00:50:33.431Z,79.57
2022-08-19T00:51:33.558Z,79.57
2022-08-19T00:52:33.634Z,79.57
2022-08-19T00:53:33.686Z,79.67
2022-08-19T00:54:33.818Z,79.67
2022-08-19T00:55:33.866Z,79.67
2022-08-19T00:56:33.980Z,79.77
2022-08-19T00:57:34.009Z,79.63
2022-08-19T00:58:34.091Z,79.63
2022-08-19T00:59:56.278Z,79.73
2022-08-19T01:00:34.263Z,79.73
2022-08-19T01:01:34.443Z,79.73
2022-08-19T01:02:34.437Z,79.63
2022-08-19T01:03:56.914Z,79.63
2022-08-19T01:04:34.635Z,79.53
2022-08-19T01:05:34.670Z,79.53
2022-08-19T01:06:34.813Z,79.53
2022-08-19T01:07:37.515Z,79.53
2022-08-19T01:08:34.894Z,79.53
2022-08-19T01:09:34.995Z,79.53
2022-08-19T01:10:36.951Z,79.43
2022-08-19T01:11:35.224Z,79.33
2022-08-19T01:12:35.239Z,79.33
2022-08-19T01:13:49.353Z,79.33
2022-08-19T01:14:35.420Z,79.43
2022-08-19T01:15:35.486Z,79.43
2022-08-19T01:16:35.588Z,79.43
2022-08-19T01:17:36.040Z,79.43
2022-08-19T01:18:35.732Z,79.43
2022-08-19T01:19:44.349Z,79.53
2022-08-19T01:20:35.890Z,79.43
2022-08-19T01:21:35.986Z,79.43
2022-08-19T01:22:36.092Z,79.43
2022-08-19T01:23:36.158Z,79.43
2022-08-19T01:24:36.225Z,79.43
2022-08-19T01:25:36.313Z,79.33
2022-08-19T01:26:36.386Z,79.33
2022-08-19T01:27:43.842Z,79.33
2022-08-19T01:28:40.269Z,79.33
2022-08-19T01:29:36.608Z,79.33
2022-08-19T01:30:36.669Z,79.33
2022-08-19T01:31:36.759Z,79.33
2022-08-19T01:32:36.830Z,79.23
2022-08-19T01:33:36.899Z,79.33
2022-08-19T01:34:36.988Z,79.33
2022-08-19T01:35:37.060Z,79.33
2022-08-19T01:36:37.178Z,78.93
2022-08-19T01:37:37.238Z,78.83
2022-08-19T01:38:37.348Z,78.73
2022-08-19T01:39:37.505Z,78.63
2022-08-19T01:40:37.530Z,78.73
2022-08-19T01:41:37.576Z,78.73
2022-08-19T01:42:37.659Z,78.73
2022-08-19T01:43:37.747Z,78.83
2022-08-19T01:44:37.828Z,78.83
2022-08-19T01:45:37.920Z,78.93
2022-08-19T01:46:38.067Z,78.83
2022-08-19T01:47:38.121Z,78.83
2022-08-19T01:48:38.159Z,78.93
2022-08-19T01:49:38.227Z,78.93
2022-08-19T01:50:38.303Z,78.93
2022-08-19T01:51:39.584Z,78.93
2022-08-19T01:52:38.476Z,78.93
2022-08-19T01:53:38.533Z,78.93
2022-08-19T01:54:38.605Z,78.93
2022-08-19T01:55:41.040Z,78.93
2022-08-19T01:56:38.800Z,78.83
2022-08-19T01:57:38.939Z,78.83
2022-08-19T01:58:39.018Z,78.83
2022-08-19T01:59:39.069Z,78.83
2022-08-19T02:00:39.147Z,78.73
2022-08-19T02:01:39.279Z,78.73
2022-08-19T02:02:39.306Z,78.73
2022-08-19T02:03:39.382Z,78.63
2022-08-19T02:04:39.470Z,78.63
2022-08-19T02:05:39.542Z,78.42
2022-08-19T02:06:39.649Z,78.33
2022-08-19T02:07:41.227Z,78.36
2022-08-19T02:08:39.752Z,78.36
2022-08-19T02:09:39.826Z,78.46
2022-08-19T02:10:39.909Z,78.46
2022-08-19T02:11:40.024Z,78.46
2022-08-19T02:12:40.074Z,78.56
2022-08-19T02:13:40.196Z,78.56
2022-08-19T02:14:40.282Z,78.46
2022-08-19T02:15:40.352Z,78.46
2022-08-19T02:16:40.433Z,78.46
2022-08-19T02:17:40.500Z,78.46
2022-08-19T02:18:40.604Z,78.56
2022-08-19T02:19:41.143Z,78.66
2022-08-19T02:20:40.803Z,78.66
2022-08-19T02:21:40.855Z,78.77
2022-08-19T02:22:40.928Z,78.77
2022-08-19T02:23:41.018Z,78.77
2022-08-19T02:24:41.124Z,78.86
2022-08-19T02:25:41.206Z,78.86
2022-08-19T02:26:41.293Z,78.86
2022-08-19T02:27:41.375Z,78.97
2022-08-19T02:28:41.443Z,78.97
2022-08-19T02:29:41.532Z,78.86
2022-08-19T02:30:41.614Z,78.86
2022-08-19T02:31:41.713Z,78.86
2022-08-19T02:32:44.689Z,78.86
2022-08-19T02:33:41.853Z,78.86
2022-08-19T02:34:41.919Z,78.86
2022-08-19T02:35:42.061Z,78.86
2022-08-19T02:36:42.500Z,78.77
2022-08-19T02:37:42.172Z,78.77
2022-08-19T02:38:42.237Z,78.77
2022-08-19T02:39:42.349Z,78.77
2022-08-19T02:40:42.436Z,78.66
2022-08-19T02:41:42.479Z,78.66
2022-08-19T02:42:42.568Z,78.56
2022-08-19T02:44:20.375Z,78.56
2022-08-19T02:44:42.729Z,78.56
2022-08-19T02:45:42.793Z,78.56
2022-08-19T02:46:42.889Z,78.56
2022-08-19T02:47:42.973Z,78.56
2022-08-19T02:48:43.046Z,78.56
2022-08-19T02:49:43.127Z,78.66
2022-08-19T02:50:53.130Z,78.66
2022-08-19T02:51:43.306Z,78.77
2022-08-19T02:52:43.326Z,78.77
2022-08-19T02:53:43.410Z,78.77
2022-08-19T02:54:43.483Z,78.66
2022-08-19T02:55:46.081Z,78.66
2022-08-19T02:56:43.680Z,78.66
2022-08-19T02:57:43.717Z,78.66
2022-08-19T02:58:43.793Z,78.56
2022-08-19T02:59:43.886Z,78.66
2022-08-19T03:00:43.966Z,78.66
2022-08-19T03:01:44.175Z,78.66
2022-08-19T03:02:44.179Z,78.66
2022-08-19T03:03:44.172Z,78.77
2022-08-19T03:04:44.244Z,78.77
2022-08-19T03:05:48.084Z,78.77
2022-08-19T03:06:44.474Z,78.77
2022-08-19T03:07:44.486Z,78.77
2022-08-19T03:08:44.571Z,78.77
2022-08-19T03:09:44.649Z,78.77
2022-08-19T03:10:44.737Z,78.77
2022-08-19T03:11:44.867Z,78.73
2022-08-19T03:12:44.903Z,78.66
2022-08-19T03:13:44.970Z,78.77
2022-08-19T03:14:45.054Z,78.73
2022-08-19T03:15:45.130Z,78.73
2022-08-19T03:16:45.230Z,78.73
2022-08-19T03:17:45.310Z,78.73
2022-08-19T03:18:45.386Z,78.73
2022-08-19T03:19:45.491Z,78.83
2022-08-19T03:20:45.557Z,78.73
2022-08-19T03:21:45.647Z,78.73
2022-08-19T03:22:45.674Z,78.73
2022-08-19T03:23:45.749Z,78.63
2022-08-19T03:24:45.862Z,78.63
2022-08-19T03:25:45.891Z,78.53
2022-08-19T03:26:45.987Z,78.53
2022-08-19T03:27:46.076Z,78.53
2022-08-19T03:28:51.118Z,78.56
2022-08-19T03:29:46.255Z,78.53
2022-08-19T03:30:46.378Z,78.63
2022-08-19T03:31:52.686Z,78.56
2022-08-19T03:32:46.530Z,78.56
2022-08-19T03:33:46.591Z,78.46
2022-08-19T03:34:46.661Z,78.46
2022-08-19T03:35:46.741Z,78.36
2022-08-19T03:36:46.851Z,78.36
2022-08-19T03:37:46.903Z,78.36
2022-08-19T03:38:46.985Z,78.36
2022-08-19T03:39:47.130Z,78.46
2022-08-19T03:40:47.112Z,78.46
2022-08-19T03:41:48.617Z,78.56
2022-08-19T03:42:48.969Z,78.56
2022-08-19T03:43:47.339Z,78.56
2022-08-19T03:44:47.425Z,78.56
2022-08-19T03:45:47.504Z,78.56
2022-08-19T03:46:47.646Z,78.56
2022-08-19T03:47:47.641Z,78.66
2022-08-19T03:48:47.716Z,78.66
2022-08-19T03:49:47.792Z,78.66
2022-08-19T03:50:47.938Z,78.66
2022-08-19T03:51:47.983Z,78.77
2022-08-19T03:52:48.184Z,78.77
2022-08-19T03:53:48.133Z,78.66
2022-08-19T03:54:48.220Z,78.66
2022-08-19T03:55:48.293Z,78.56
2022-08-19T03:56:48.434Z,78.56
2022-08-19T03:57:49.330Z,78.56
2022-08-19T03:58:48.550Z,78.56
2022-08-19T03:59:48.833Z,78.56
2022-08-19T04:00:48.726Z,78.56
2022-08-19T04:01:48.821Z,78.56
2022-08-19T04:03:00.378Z,78.56
2022-08-19T04:03:48.960Z,78.56
2022-08-19T04:04:49.018Z,78.56
2022-08-19T04:05:49.147Z,78.56
2022-08-19T04:06:49.189Z,78.66
2022-08-19T04:07:49.325Z,78.66
2022-08-19T04:08:49.366Z,78.66
2022-08-19T04:09:49.452Z,78.77
2022-08-19T04:10:49.531Z,78.77
2022-08-19T04:11:49.665Z,78.77
2022-08-19T04:12:49.777Z,78.77
2022-08-19T04:13:49.783Z,78.77
2022-08-19T04:14:49.861Z,78.77
2022-08-19T04:15:49.973Z,78.77
2022-08-19T04:16:50.068Z,78.77
2022-08-19T04:17:50.084Z,78.77
2022-08-19T04:18:50.174Z,78.77
2022-08-19T04:19:50.239Z,78.77
2022-08-19T04:20:50.323Z,78.66
2022-08-19T04:21:50.414Z,78.56
2022-08-19T04:22:50.489Z,78.46
2022-08-19T04:23:50.615Z,78.36
2022-08-19T04:24:50.656Z,78.36
2022-08-19T04:25:50.731Z,78.36
2022-08-19T04:26:50.850Z,78.36
2022-08-19T04:27:50.885Z,78.46
2022-08-19T04:28:50.970Z,78.46
2022-08-19T04:29:51.052Z,78.46
2022-08-19T04:30:51.120Z,78.46
2022-08-19T04:31:51.216Z,78.46
2022-08-19T04:32:51.333Z,78.46
2022-08-19T04:33:51.401Z,78.46
2022-08-19T04:35:02.780Z,78.46
2022-08-19T04:35:51.551Z,78.46
2022-08-19T04:36:51.614Z,78.56
2022-08-19T04:37:51.678Z,78.56
2022-08-19T04:38:51.782Z,78.56
2022-08-19T04:39:51.897Z,78.66
2022-08-19T04:40:51.962Z,78.66
2022-08-19T04:41:52.045Z,78.56
2022-08-19T04:42:52.395Z,78.56
2022-08-19T04:43:52.214Z,78.56
2022-08-19T04:44:52.309Z,78.66
2022-08-19T04:45:52.833Z,78.66
2022-08-19T04:46:52.453Z,78.66
2022-08-19T04:48:19.802Z,78.77
2022-08-19T04:48:52.587Z,78.77
2022-08-19T04:49:52.685Z,78.86
2022-08-19T04:50:52.759Z,78.77
2022-08-19T04:51:52.838Z,78.77
2022-08-19T04:52:53.130Z,78.77
2022-08-19T04:53:52.997Z,78.66
2022-08-19T04:54:53.093Z,78.56
2022-08-19T04:55:53.213Z,78.56
2022-08-19T04:56:53.247Z,78.66
2022-08-19T04:57:53.365Z,78.66
2022-08-19T04:58:53.421Z,78.66
2022-08-19T04:59:53.515Z,78.77
2022-08-19T05:00:53.604Z,78.66
2022-08-19T05:01:53.657Z,78.56
2022-08-19T05:02:53.878Z,78.56
2022-08-19T05:03:53.846Z,78.56
2022-08-19T05:04:53.935Z,78.66
2022-08-19T05:05:54.011Z,78.77
2022-08-19T05:06:54.088Z,78.77
2022-08-19T05:07:54.213Z,78.77
2022-08-19T05:08:54.243Z,78.86
2022-08-19T05:09:58.441Z,78.86
2022-08-19T05:10:54.399Z,78.86
2022-08-19T05:11:54.470Z,78.86
2022-08-19T05:12:54.871Z,78.97
2022-08-19T05:13:54.643Z,78.97
2022-08-19T05:14:54.758Z,79.06
2022-08-19T05:15:54.795Z,79.06
2022-08-19T05:17:23.739Z,79.06
2022-08-19T05:17:54.995Z,79.17
2022-08-19T05:18:55.039Z,79.17
2022-08-19T05:19:55.131Z,79.17
2022-08-19T05:20:55.201Z,79.27
2022-08-19T05:21:55.281Z,79.27
2022-08-19T05:22:55.625Z,79.37
2022-08-19T05:23:55.441Z,79.37
2022-08-19T05:25:11.637Z,79.47
2022-08-19T05:25:55.629Z,79.47
2022-08-19T05:26:55.689Z,79.47
2022-08-19T05:27:55.770Z,79.57
2022-08-19T05:28:55.879Z,79.57
2022-08-19T05:29:55.926Z,79.57
2022-08-19T05:30:55.995Z,79.57
2022-08-19T05:31:56.074Z,79.57
2022-08-19T05:32:56.154Z,79.57
2022-08-19T05:33:56.258Z,79.67
2022-08-19T05:34:56.294Z,79.67
2022-08-19T05:35:56.376Z,79.57
2022-08-19T05:36:56.474Z,79.57
2022-08-19T05:37:58.982Z,79.47
2022-08-19T05:38:56.710Z,79.27
2022-08-19T05:39:56.869Z,79.37
2022-08-19T05:40:56.846Z,79.37
2022-08-19T05:41:56.922Z,79.37
2022-08-19T05:42:57.043Z,79.37
2022-08-19T05:43:57.111Z,79.37
2022-08-19T05:44:57.179Z,79.47
2022-08-19T05:45:57.320Z,79.47
2022-08-19T05:46:57.337Z,79.47
2022-08-19T05:47:57.409Z,79.57
2022-08-19T05:48:57.584Z,79.57
2022-08-19T05:49:57.558Z,79.67
2022-08-19T05:50:57.645Z,79.57
2022-08-19T05:51:57.751Z,79.57
2022-08-19T05:52:58.057Z,79.57
2022-08-19T05:53:57.929Z,79.57
2022-08-19T05:54:57.924Z,79.77
2022-08-19T05:55:58.067Z,79.77
2022-08-19T05:56:58.091Z,79.77
2022-08-19T05:57:58.169Z,79.87
2022-08-19T05:58:58.412Z,79.87
2022-08-19T05:59:59.152Z,79.67
2022-08-19T06:00:58.431Z,79.87
2022-08-19T06:01:58.511Z,79.87
2022-08-19T06:02:58.612Z,79.91
2022-08-19T06:03:58.715Z,79.91
2022-08-19T06:04:58.758Z,79.91
2022-08-19T06:05:58.837Z,79.91
2022-08-19T06:06:58.982Z,79.91
2022-08-19T06:07:58.990Z,80.01
2022-08-19T06:08:59.085Z,80.11
2022-08-19T06:10:00.998Z,80.21
2022-08-19T06:10:59.256Z,80.21
2022-08-19T06:11:59.337Z,80.21
2022-08-19T06:12:59.416Z,80.31
2022-08-19T06:14:00.403Z,80.31
2022-08-19T06:15:01.646Z,80.31
2022-08-19T06:15:59.670Z,80.31
2022-08-19T06:17:01.773Z,80.21
2022-08-19T06:17:59.880Z,80.31
2022-08-19T06:18:59.919Z,80.31
2022-08-19T06:20:00.321Z,80.31
2022-08-19T06:21:00.120Z,80.31
2022-08-19T06:22:00.173Z,80.31
2022-08-19T06:23:00.262Z,80.31
2022-08-19T06:24:00.376Z,80.31
2022-08-19T06:25:00.412Z,80.31
2022-08-19T06:26:00.551Z,80.41
2022-08-19T06:27:01.523Z,80.41
2022-08-19T06:28:16.113Z,80.41
2022-08-19T06:29:00.765Z,80.41
2022-08-19T06:30:00.801Z,80.51
2022-08-19T06:31:00.893Z,80.41
2022-08-19T06:32:00.979Z,80.41
2022-08-19T06:33:01.055Z,80.41
2022-08-19T06:34:01.158Z,80.41
2022-08-19T06:35:01.237Z,80.31
2022-08-19T06:36:01.316Z,80.41
2022-08-19T06:37:01.392Z,80.41
2022-08-19T06:38:01.653Z,80.41
2022-08-19T06:39:01.631Z,80.41
2022-08-19T06:40:01.751Z,80.41
2022-08-19T06:41:01.772Z,80.41
2022-08-19T06:42:01.809Z,80.51
2022-08-19T06:43:02.291Z,80.51
2022-08-19T06:44:02.023Z,80.51
2022-08-19T06:45:02.047Z,80.41
2022-08-19T06:46:02.124Z,80.41
2022-08-19T06:47:02.198Z,80.41
2022-08-19T06:48:02.290Z,80.41
2022-08-19T06:49:02.394Z,80.41
2022-08-19T06:50:03.095Z,80.47
2022-08-19T06:51:02.522Z,80.37
2022-08-19T06:52:02.608Z,80.37
2022-08-19T06:53:04.609Z,80.37
2022-08-19T06:54:02.787Z,80.37
2022-08-19T06:55:06.498Z,80.37
2022-08-19T06:56:02.901Z,80.37
2022-08-19T06:57:02.987Z,80.37
2022-08-19T06:58:03.081Z,80.37
2022-08-19T06:59:03.192Z,80.37
2022-08-19T07:00:03.267Z,80.37
2022-08-19T07:01:05.717Z,80.37
2022-08-19T07:02:03.451Z,80.27
2022-08-19T07:03:07.705Z,80.27
2022-08-19T07:04:04.440Z,80.27
2022-08-19T07:05:03.678Z,80.37
2022-08-19T07:06:05.377Z,80.27
2022-08-19T07:07:19.644Z,80.27
2022-08-19T07:08:05.084Z,80.27
2022-08-19T07:09:04.005Z,80.27
2022-08-19T07:10:06.202Z,80.27
2022-08-19T07:11:04.152Z,80.27
2022-08-19T07:12:04.231Z,80.27
2022-08-19T07:13:04.290Z,80.27
2022-08-19T07:14:04.394Z,80.37
2022-08-19T07:15:04.468Z,80.27
2022-08-19T07:16:05.580Z,80.27
2022-08-19T07:21:56.819Z,80.71
2022-08-19T07:29:06.158Z,81.26
2022-08-19T07:30:07.062Z,81.26
2022-08-19T07:31:07.285Z,81.35
2022-08-19T07:32:07.172Z,81.35
2022-08-19T07:33:07.252Z,81.35
2022-08-19T07:34:07.390Z,81.21
2022-08-19T07:35:07.456Z,81.21
2022-08-19T07:36:07.812Z,81.12
2022-08-19T07:37:07.569Z,81.12
2022-08-19T07:38:07.635Z,81.12
2022-08-19T07:39:07.767Z,81.12
2022-08-19T07:40:07.853Z,81.01
2022-08-19T07:41:07.845Z,81.01
2022-08-19T07:42:07.966Z,81.01
2022-08-19T07:43:12.275Z,81.01
2022-08-19T07:44:08.185Z,81.01
2022-08-19T08:12:35.247Z,83.54
2022-08-19T08:13:28.192Z,83.54
2022-08-19T08:14:34.934Z,83.61
2022-08-19T08:15:28.219Z,83.51
2022-08-19T08:16:28.375Z,83.40
2022-08-19T08:17:48.872Z,83.31
2022-08-19T08:18:30.455Z,83.17
2022-08-19T08:19:28.552Z,83.06
2022-08-19T08:20:28.608Z,82.97
2022-08-19T08:21:28.913Z,82.86
2022-08-19T08:22:28.794Z,82.76
2022-08-19T08:23:29.191Z,82.66
2022-08-19T08:24:29.211Z,82.52
2022-08-19T08:25:29.018Z,82.42
2022-08-19T08:26:31.507Z,82.42
2022-08-19T08:27:48.681Z,82.42
2022-08-19T08:28:30.056Z,82.32
2022-08-19T08:29:35.061Z,82.32
2022-08-19T08:30:32.520Z,82.22
2022-08-19T08:31:30.244Z,82.12
2022-08-19T08:32:30.619Z,82.02
2022-08-19T08:33:34.413Z,82.02
2022-08-19T08:34:30.618Z,81.88
2022-08-19T08:35:31.101Z,81.88
2022-08-19T08:36:30.032Z,81.78
2022-08-19T08:37:46.100Z,81.68
2022-08-19T08:40:56.490Z,81.68
2022-08-19T08:41:03.024Z,81.78
2022-08-19T08:42:10.372Z,81.68
2022-08-19T08:44:02.060Z,81.38
2022-08-19T08:45:01.658Z,81.27
2022-08-19T08:46:01.987Z,81.38
2022-08-19T08:47:02.635Z,81.38
2022-08-19T08:48:02.246Z,81.27
2022-08-19T08:49:19.313Z,81.27
2022-08-19T08:50:02.463Z,81.38
2022-08-19T08:51:02.357Z,81.38
2022-08-19T09:05:51.902Z,82.80
2022-08-19T09:09:17.767Z,83.20
2022-08-19T09:12:47.291Z,83.40
2022-08-19T09:13:48.064Z,83.51
2022-08-19T09:14:51.175Z,83.61
2022-08-19T09:15:48.243Z,83.61
2022-08-19T09:16:48.326Z,83.51
2022-08-19T09:17:48.486Z,83.47
2022-08-19T09:18:48.512Z,83.37
2022-08-19T09:19:48.632Z,83.37
2022-08-19T09:20:48.733Z,83.26
2022-08-19T09:21:48.855Z,83.26
2022-08-19T09:22:48.905Z,83.17
2022-08-19T09:23:51.023Z,83.17
2022-08-19T09:24:48.977Z,83.03
2022-08-19T09:25:49.182Z,83.03
2022-08-19T09:26:55.788Z,82.92
2022-08-19T09:27:49.287Z,82.92
2022-08-19T09:28:49.318Z,82.92
2022-08-19T09:29:49.427Z,82.92
2022-08-19T09:30:49.501Z,82.92
2022-08-19T09:31:49.582Z,82.82
2022-08-19T09:32:52.876Z,82.82
2022-08-19T09:33:49.747Z,82.72
2022-08-19T09:34:51.317Z,82.68
2022-08-19T09:35:53.432Z,82.68
2022-08-19T09:36:49.994Z,82.58
2022-08-19T09:37:50.207Z,82.48
2022-08-19T09:38:50.184Z,82.48
2022-08-19T09:39:50.274Z,82.48
2022-08-19T09:40:50.304Z,82.38
2022-08-19T09:41:50.400Z,82.38
2022-08-19T09:42:52.579Z,82.38
2022-08-19T09:43:50.569Z,82.38
2022-08-19T09:44:50.621Z,82.28
2022-08-19T09:45:50.711Z,82.28
2022-08-19T09:46:50.794Z,82.28
2022-08-19T09:47:50.887Z,82.14
2022-08-19T09:48:50.932Z,82.14
2022-08-19T09:49:51.000Z,82.14
2022-08-19T09:50:51.949Z,82.24
2022-08-19T09:51:51.528Z,82.24
2022-08-19T09:52:54.167Z,82.24
2022-08-19T09:53:51.371Z,82.24
2022-08-19T09:54:52.050Z,82.24
2022-08-19T09:55:51.547Z,82.24
2022-08-19T09:56:51.616Z,82.34
2022-08-19T09:57:51.797Z,82.34
2022-08-19T09:58:51.802Z,82.24
2022-08-19T09:59:51.866Z,82.24
2022-08-19T10:00:51.950Z,82.24
2022-08-19T10:01:51.979Z,82.24
2022-08-19T10:02:53.271Z,82.24
2022-08-19T10:03:52.162Z,82.24
2022-08-19T10:04:52.220Z,82.24
2022-08-19T10:05:55.277Z,82.34
2022-08-19T10:06:53.627Z,82.34
2022-08-19T10:07:52.641Z,82.24
2022-08-19T10:08:52.513Z,82.24
2022-08-19T10:09:52.608Z,82.24
2022-08-19T10:10:52.675Z,82.24
2022-08-19T10:11:54.799Z,82.24
2022-08-19T10:12:52.855Z,82.24
2022-08-19T10:13:52.929Z,82.24
2022-08-19T10:14:53.001Z,82.24
2022-08-19T10:15:53.118Z,82.24
2022-08-19T10:16:53.201Z,82.34
2022-08-19T10:17:55.308Z,82.24
2022-08-19T10:18:53.388Z,82.24
2022-08-19T10:19:55.966Z,82.14
2022-08-19T10:20:53.548Z,82.14
2022-08-19T10:21:53.654Z,82.14
2022-08-19T10:22:53.701Z,82.14
2022-08-19T10:23:53.799Z,82.14
2022-08-19T10:24:53.859Z,82.14
2022-08-19T10:25:53.952Z,82.14
2022-08-19T10:26:57.127Z,82.14
2022-08-19T10:27:56.058Z,82.14
2022-08-19T10:28:54.222Z,82.14
2022-08-19T10:29:54.256Z,82.14
2022-08-19T10:30:54.316Z,82.14
2022-08-19T10:32:00.677Z,82.14
2022-08-19T10:32:54.501Z,82.14
2022-08-19T10:33:54.552Z,82.04
2022-08-19T10:34:57.079Z,82.04
2022-08-19T10:35:56.841Z,82.14
2022-08-19T10:36:56.312Z,82.04
2022-08-19T10:37:56.785Z,82.14
2022-08-19T10:38:57.004Z,82.14
2022-08-19T10:39:55.156Z,82.14
2022-08-19T10:40:55.142Z,82.14
2022-08-19T10:41:55.232Z,82.14
2022-08-19T10:42:55.359Z,82.14
2022-08-19T10:43:55.418Z,82.04
2022-08-19T10:44:55.481Z,82.04
2022-08-19T10:45:55.590Z,82.14
2022-08-19T10:46:55.627Z,82.14
2022-08-19T10:47:55.900Z,82.14
2022-08-19T10:48:55.797Z,82.04
2022-08-19T10:49:55.857Z,82.04
2022-08-19T10:50:55.940Z,82.04
2022-08-19T10:51:56.022Z,82.04
2022-08-19T10:52:56.353Z,82.04
2022-08-19T10:53:56.206Z,82.04
2022-08-19T10:54:56.312Z,81.94
2022-08-19T10:55:56.353Z,81.94
2022-08-19T10:56:56.460Z,81.94
2022-08-19T10:58:02.519Z,81.94
2022-08-19T10:58:56.619Z,81.94
2022-08-19T10:59:56.706Z,81.94
2022-08-19T11:00:56.818Z,81.94
2022-08-19T11:01:56.863Z,81.94
2022-08-19T11:02:56.932Z,81.94
2022-08-19T11:03:57.056Z,81.94
2022-08-19T11:04:58.998Z,81.94
2022-08-19T11:05:57.184Z,81.94
2022-08-19T11:06:58.267Z,81.94
2022-08-19T11:07:57.446Z,81.90
2022-08-19T11:08:57.384Z,81.90
2022-08-19T11:09:57.476Z,81.90
2022-08-19T11:10:57.567Z,81.90
2022-08-19T11:11:57.653Z,81.80
2022-08-19T11:12:57.746Z,81.80
2022-08-19T11:13:57.818Z,81.80
2022-08-19T11:14:57.876Z,81.80
2022-08-19T11:15:57.966Z,81.70
2022-08-19T11:16:58.039Z,81.60
2022-08-19T11:17:58.129Z,81.60
2022-08-19T11:18:58.202Z,81.60
2022-08-19T11:19:58.310Z,81.70
2022-08-19T11:20:58.367Z,81.80
2022-08-19T11:22:00.173Z,81.80
2022-08-19T11:22:58.626Z,81.80
2022-08-19T11:23:58.676Z,81.80
2022-08-19T11:24:58.734Z,81.90
2022-08-19T11:25:58.841Z,81.80
2022-08-19T11:26:58.904Z,81.90
2022-08-19T11:27:59.030Z,81.90
2022-08-19T11:28:59.115Z,81.90
2022-08-19T11:29:59.195Z,82.00
2022-08-19T11:30:59.271Z,82.00
2022-08-19T11:31:59.356Z,82.00
2022-08-19T11:32:59.435Z,82.10
2022-08-19T11:33:59.513Z,82.10
2022-08-19T11:34:59.583Z,82.10
2022-08-19T11:35:59.695Z,82.10
2022-08-19T11:36:59.759Z,82.10
2022-08-19T11:37:59.910Z,82.10
2022-08-19T11:38:59.942Z,82.20
2022-08-19T11:40:00.064Z,82.20
2022-08-19T11:41:00.131Z,82.20
2022-08-19T11:42:00.204Z,82.20
2022-08-19T11:43:00.323Z,82.20
2022-08-19T11:44:00.366Z,82.20
2022-08-19T11:45:00.427Z,82.20
2022-08-19T11:46:00.541Z,82.20
2022-08-19T11:47:00.600Z,82.20
2022-08-19T11:48:00.713Z,82.20
2022-08-19T11:49:00.747Z,82.31
2022-08-19T11:50:00.820Z,82.31
2022-08-19T11:51:00.918Z,82.31
2022-08-19T11:52:00.991Z,82.20
2022-08-19T11:53:01.110Z,82.10
2022-08-19T11:54:01.219Z,82.10
2022-08-19T11:55:01.276Z,82.10
2022-08-19T11:56:01.373Z,82.20
2022-08-19T11:57:01.441Z,82.20
2022-08-19T11:58:01.545Z,82.20
2022-08-19T11:59:01.618Z,82.20
2022-08-19T12:00:01.707Z,82.20
2022-08-19T12:01:01.780Z,82.31
2022-08-19T12:02:01.867Z,82.31
2022-08-19T12:03:01.959Z,82.31
2022-08-19T12:04:02.098Z,82.40
2022-08-19T12:05:02.145Z,82.40
2022-08-19T12:06:02.231Z,82.40
2022-08-19T12:07:02.300Z,82.40
2022-08-19T12:08:02.393Z,82.40
2022-08-19T12:09:02.455Z,82.51
2022-08-19T12:10:02.542Z,82.51
2022-08-19T12:11:02.626Z,82.40
2022-08-19T12:12:02.695Z,82.40
2022-08-19T12:13:02.796Z,82.40
2022-08-19T12:14:02.849Z,82.40
2022-08-19T12:15:02.921Z,82.40
2022-08-19T12:16:02.974Z,82.40
2022-08-19T12:17:03.046Z,82.40
2022-08-19T12:18:03.148Z,82.31
2022-08-19T12:19:03.232Z,82.40
2022-08-19T12:20:03.311Z,82.31
2022-08-19T12:21:03.398Z,82.40
2022-08-19T12:22:03.494Z,82.31
2022-08-19T12:23:03.592Z,82.31
2022-08-19T12:24:03.671Z,82.31
2022-08-19T12:25:03.761Z,82.31
2022-08-19T12:26:03.808Z,82.31
2022-08-19T12:27:03.882Z,82.31
2022-08-19T12:28:04.447Z,82.20
2022-08-19T12:29:04.064Z,82.20
2022-08-19T12:30:04.138Z,82.31
2022-08-19T12:31:04.216Z,82.31
2022-08-19T12:32:04.311Z,82.34
2022-08-19T12:33:04.423Z,82.45
2022-08-19T12:34:04.504Z,82.45
2022-08-19T12:35:04.571Z,82.45
2022-08-19T12:36:04.706Z,82.45
2022-08-19T12:37:04.744Z,82.45
2022-08-19T12:38:04.855Z,82.34
2022-08-19T12:39:04.912Z,82.45
2022-08-19T12:40:05.015Z,82.45
2022-08-19T12:41:05.080Z,82.45
2022-08-19T12:42:05.155Z,82.45
2022-08-19T12:43:05.264Z,82.54
2022-08-19T12:44:05.299Z,82.54
2022-08-19T12:45:05.393Z,82.54
2022-08-19T12:46:05.495Z,82.54
2022-08-19T12:47:06.150Z,82.54
2022-08-19T12:48:31.363Z,82.54
2022-08-19T12:49:19.073Z,82.54
2022-08-19T12:50:07.044Z,82.54
2022-08-19T12:51:05.922Z,82.54
2022-08-19T12:52:05.970Z,82.54
2022-08-19T12:53:06.076Z,82.54
2022-08-19T12:54:06.155Z,82.54
2022-08-19T12:55:06.306Z,82.45
2022-08-19T12:56:06.311Z,82.54
2022-08-19T12:57:06.390Z,82.54
2022-08-19T12:58:06.495Z,82.54
2022-08-19T12:59:06.533Z,82.54
2022-08-19T13:00:06.614Z,82.45
2022-08-19T13:01:06.696Z,82.45
2022-08-19T13:02:06.777Z,82.45
2022-08-19T13:03:06.918Z,82.45
2022-08-19T13:04:06.933Z,82.34
2022-08-19T13:05:07.025Z,82.34
2022-08-19T13:06:07.129Z,82.34
2022-08-19T13:07:07.198Z,82.34
2022-08-19T13:08:07.255Z,82.34
2022-08-19T13:09:07.346Z,82.24
2022-08-19T13:10:07.455Z,82.24
2022-08-19T13:11:07.514Z,82.24
2022-08-19T13:12:07.592Z,82.24
2022-08-19T13:13:07.694Z,82.24
2022-08-19T13:14:07.755Z,82.24
2022-08-19T13:15:10.883Z,82.24
2022-08-19T13:16:07.925Z,82.18
2022-08-19T13:17:08.011Z,82.18
2022-08-19T13:18:08.156Z,82.18
2022-08-19T13:19:08.188Z,82.18
2022-08-19T13:20:08.259Z,82.18
2022-08-19T13:21:08.342Z,82.28
2022-08-19T13:22:13.189Z,82.28
2022-08-19T13:23:08.529Z,82.18
2022-08-19T13:24:08.553Z,82.18
2022-08-19T13:25:08.656Z,82.28
2022-08-19T13:26:08.710Z,82.38
2022-08-19T13:27:08.815Z,82.48
2022-08-19T13:28:08.910Z,82.48
2022-08-19T13:29:08.945Z,82.58
2022-08-19T13:30:09.039Z,82.58
2022-08-19T13:31:09.113Z,82.68
2022-08-19T13:32:09.186Z,82.68
2022-08-19T13:33:09.305Z,82.68
2022-08-19T13:34:09.412Z,82.68
2022-08-19T13:35:11.843Z,82.68
2022-08-19T13:36:09.486Z,82.68
2022-08-19T13:37:09.582Z,82.78
2022-08-19T13:38:12.016Z,82.78
2022-08-19T13:39:09.779Z,82.78
2022-08-19T13:40:09.914Z,82.78
2022-08-19T13:41:14.404Z,82.68
2022-08-19T13:42:10.026Z,82.58
2022-08-19T13:43:17.630Z,82.58
2022-08-19T13:44:10.200Z,82.48
2022-08-19T13:45:10.277Z,82.28
2022-08-19T13:46:10.362Z,82.28
2022-08-19T13:47:10.443Z,82.38
2022-08-19T13:48:10.548Z,82.48
2022-08-19T13:49:10.597Z,82.58
2022-08-19T13:50:10.680Z,82.68
2022-08-19T13:51:10.755Z,82.68
2022-08-19T13:52:10.881Z,82.58
2022-08-19T13:53:10.943Z,82.58